createdAt,value
2022-10-17T00:01:54.566Z,15.90
2022-10-17T00:04:22.404Z,15.90
2022-10-17T00:06:49.272Z,15.90
2022-10-17T00:09:16.052Z,15.90
2022-10-17T00:11:42.828Z,15.90
2022-10-17T00:14:09.701Z,15.90
2022-10-17T00:16:37.614Z,15.90
2022-10-17T00:19:06.354Z,15.90
2022-10-17T00:21:33.745Z,15.90
2022-10-17T00:24:01.249Z,15.90
2022-10-17T00:26:32.581Z,15.90
2022-10-17T00:28:59.449Z,15.80
2022-10-17T00:31:26.311Z,15.80
2022-10-17T00:33:54.664Z,15.80
2022-10-17T00:36:24.806Z,15.80
2022-10-17T00:38:57.983Z,15.80
2022-10-17T00:41:28.666Z,15.90
2022-10-17T00:43:59.882Z,15.90
2022-10-17T00:46:33.022Z,15.90
2022-10-17T00:49:05.411Z,15.90
2022-10-17T00:51:43.892Z,15.90
2022-10-17T00:54:12.912Z,15.90
2022-10-17T00:56:40.503Z,16.00
2022-10-17T00:59:12.280Z,16.00
2022-10-17T01:01:41.417Z,16.00
2022-10-17T01:04:09.879Z,16.00
2022-10-17T01:06:36.631Z,16.00
2022-10-17T01:09:03.538Z,16.00
2022-10-17T01:11:30.314Z,16.00
2022-10-17T01:14:16.524Z,16.00
2022-10-17T01:17:00.472Z,16.00
2022-10-17T01:19:33.286Z,16.00
2022-10-17T01:22:10.118Z,16.10
2022-10-17T01:25:13.746Z,16.00
2022-10-17T01:28:13.201Z,16.10
2022-10-17T01:30:55.221Z,16.20
2022-10-17T01:33:30.756Z,16.20
2022-10-17T01:36:18.700Z,16.10
2022-10-17T01:38:55.337Z,16.20
2022-10-17T01:41:25.349Z,16.20
2022-10-17T01:44:03.670Z,16.20
2022-10-17T01:46:44.212Z,16.20
2022-10-17T01:49:13.392Z,16.20
2022-10-17T01:51:51.974Z,16.30
2022-10-17T01:54:24.924Z,16.20
2022-10-17T01:56:57.315Z,16.30
2022-10-17T01:59:29.338Z,16.40
2022-10-17T02:01:58.176Z,16.40
2022-10-17T02:04:25.714Z,16.40
2022-10-17T02:06:52.523Z,16.40
2022-10-17T02:09:27.149Z,16.40
2022-10-17T02:12:35.101Z,16.50
2022-10-17T02:15:29.351Z,16.40
2022-10-17T02:18:11.121Z,16.50
2022-10-17T02:20:49.590Z,16.50
2022-10-17T02:23:33.985Z,16.50
2022-10-17T02:26:18.354Z,16.40
2022-10-17T02:28:57.233Z,16.40
2022-10-17T02:31:31.248Z,16.50
2022-10-17T02:34:12.186Z,16.50
2022-10-17T02:36:50.960Z,16.50
2022-10-17T02:39:20.280Z,16.40
2022-10-17T02:41:49.256Z,16.40
2022-10-17T02:44:16.995Z,16.40
2022-10-17T02:46:49.530Z,16.50
2022-10-17T02:49:28.375Z,16.50
2022-10-17T02:52:03.989Z,16.50
2022-10-17T02:55:06.348Z,16.50
2022-10-17T02:57:44.175Z,16.50
2022-10-17T03:00:14.530Z,16.60
2022-10-17T03:02:47.001Z,16.60
2022-10-17T03:05:21.228Z,16.60
2022-10-17T03:07:48.110Z,16.60
2022-10-17T03:10:15.077Z,16.60
2022-10-17T03:12:42.207Z,16.60
2022-10-17T03:15:11.310Z,16.80
2022-10-17T03:17:38.907Z,16.70
2022-10-17T03:20:07.241Z,16.60
2022-10-17T03:22:34.332Z,16.70
2022-10-17T03:25:01.120Z,16.70
2022-10-17T03:27:28.175Z,16.70
2022-10-17T03:29:55.186Z,16.70
2022-10-17T03:32:22.000Z,16.70
2022-10-17T03:34:48.810Z,16.70
2022-10-17T03:37:15.666Z,16.80
2022-10-17T03:39:42.610Z,16.80
2022-10-17T03:42:09.480Z,16.80
2022-10-17T03:44:36.410Z,16.70
2022-10-17T03:47:03.446Z,16.70
2022-10-17T03:49:30.274Z,16.80
2022-10-17T03:51:57.065Z,16.70
2022-10-17T03:54:23.909Z,16.70
2022-10-17T03:56:50.755Z,16.70
2022-10-17T03:59:17.849Z,16.70
2022-10-17T04:01:46.399Z,16.70
2022-10-17T04:04:13.387Z,16.80
2022-10-17T04:06:40.296Z,16.70
2022-10-17T04:09:08.075Z,16.70
2022-10-17T04:11:34.854Z,16.80
2022-10-17T04:14:02.597Z,16.80
2022-10-17T04:16:30.175Z,16.80
2022-10-17T04:19:06.216Z,16.80
2022-10-17T04:21:33.094Z,16.80
2022-10-17T04:24:00.726Z,16.80
2022-10-17T04:26:28.008Z,16.80
2022-10-17T04:28:54.985Z,16.90
2022-10-17T04:31:22.090Z,16.90
2022-10-17T04:33:50.357Z,16.90
2022-10-17T04:36:20.019Z,16.90
2022-10-17T04:38:47.097Z,16.90
2022-10-17T04:41:16.299Z,16.90
2022-10-17T04:43:46.898Z,16.90
2022-10-17T04:46:17.192Z,16.80
2022-10-17T04:48:44.007Z,16.90
2022-10-17T04:51:16.038Z,16.90
2022-10-17T04:53:44.201Z,16.90
2022-10-17T04:56:20.264Z,16.90
2022-10-17T04:58:47.762Z,16.90
2022-10-17T05:01:21.639Z,16.90
2022-10-17T05:03:49.004Z,16.90
2022-10-17T05:06:19.070Z,16.90
2022-10-17T05:08:46.099Z,17.00
2022-10-17T05:11:25.330Z,16.90
2022-10-17T05:14:00.962Z,17.00
2022-10-17T05:16:28.798Z,17.00
2022-10-17T05:18:57.757Z,16.90
2022-10-17T05:21:25.916Z,16.90
2022-10-17T05:23:53.159Z,17.00
2022-10-17T05:26:21.031Z,16.90
2022-10-17T05:28:48.223Z,16.90
2022-10-17T05:31:15.538Z,17.00
2022-10-17T05:33:42.422Z,16.90
2022-10-17T05:36:09.677Z,16.90
2022-10-17T05:38:37.862Z,16.90
2022-10-17T05:41:05.958Z,16.90
2022-10-17T05:43:33.838Z,16.90
2022-10-17T05:46:04.225Z,17.00
2022-10-17T05:48:31.234Z,17.00
2022-10-17T05:51:09.452Z,17.00
2022-10-17T05:53:38.982Z,17.00
2022-10-17T05:56:08.069Z,17.00
2022-10-17T05:58:52.382Z,17.00
2022-10-17T06:01:20.371Z,17.00
2022-10-17T06:03:47.281Z,16.90
2022-10-17T06:06:14.994Z,17.00
2022-10-17T06:08:42.489Z,17.00
2022-10-17T06:11:10.591Z,17.00
2022-10-17T06:13:38.987Z,17.00
2022-10-17T06:16:06.459Z,17.00
2022-10-17T06:18:33.685Z,17.10
2022-10-17T06:21:09.289Z,17.00
2022-10-17T06:23:36.380Z,17.00
2022-10-17T06:26:05.290Z,17.00
2022-10-17T06:28:32.760Z,17.00
2022-10-17T06:30:59.699Z,17.00
2022-10-17T06:33:26.547Z,17.00
2022-10-17T06:35:54.661Z,17.10
2022-10-17T06:38:22.368Z,17.10
2022-10-17T06:40:49.484Z,17.10
2022-10-17T06:43:16.299Z,17.10
2022-10-17T06:45:43.086Z,17.10
2022-10-17T06:48:09.980Z,17.10
2022-10-17T06:50:36.822Z,17.10
2022-10-17T06:53:03.675Z,17.10
2022-10-17T06:55:31.884Z,17.20
2022-10-17T06:57:58.858Z,17.20
2022-10-17T07:00:27.274Z,17.20
2022-10-17T07:02:54.208Z,17.20
2022-10-17T07:05:21.055Z,17.30
2022-10-17T07:07:50.978Z,17.30
2022-10-17T07:10:18.997Z,17.30
2022-10-17T07:12:45.924Z,17.30
2022-10-17T07:15:13.099Z,17.40
2022-10-17T07:17:40.122Z,17.30
2022-10-17T07:20:07.585Z,17.30
2022-10-17T07:22:34.455Z,17.40
2022-10-17T07:25:01.279Z,17.40
2022-10-17T07:27:28.290Z,17.40
2022-10-17T07:29:55.355Z,17.40
2022-10-17T07:32:22.181Z,17.50
2022-10-17T07:34:48.956Z,17.50
2022-10-17T07:37:15.826Z,17.50
2022-10-17T07:39:42.607Z,17.60
2022-10-17T07:42:12.071Z,17.70
2022-10-17T07:44:38.878Z,17.80
2022-10-17T07:47:05.686Z,17.80
2022-10-17T07:49:32.596Z,17.80
2022-10-17T07:51:59.368Z,17.80
2022-10-17T07:54:26.186Z,17.80
2022-10-17T07:56:52.933Z,17.90
2022-10-17T07:59:20.014Z,17.90
2022-10-17T08:01:46.853Z,17.90
2022-10-17T08:04:13.673Z,18.00
2022-10-17T08:06:40.615Z,18.10
2022-10-17T08:09:07.498Z,18.10
2022-10-17T08:11:35.962Z,18.20
2022-10-17T08:14:02.775Z,18.20
2022-10-17T08:16:29.622Z,18.20
2022-10-17T08:18:56.723Z,18.20
2022-10-17T08:21:23.528Z,18.30
2022-10-17T08:23:50.391Z,18.40
2022-10-17T08:26:17.572Z,18.40
2022-10-17T08:28:44.523Z,18.50
2022-10-17T08:31:14.108Z,18.50
2022-10-17T08:33:41.972Z,18.60
2022-10-17T08:36:09.871Z,18.60
2022-10-17T08:38:43.130Z,18.60
2022-10-17T08:41:33.303Z,18.70
2022-10-17T08:44:03.939Z,18.70
2022-10-17T08:46:39.258Z,18.70
2022-10-17T08:49:24.847Z,18.70
2022-10-17T08:52:01.743Z,18.80
2022-10-17T08:54:43.118Z,18.90
2022-10-17T08:57:13.482Z,18.90
2022-10-17T08:59:40.325Z,19.00
2022-10-17T09:02:19.462Z,19.00
2022-10-17T09:04:54.595Z,19.00
2022-10-17T09:07:36.272Z,19.20
2022-10-17T09:10:35.409Z,19.20
